createdAt,value
2023-04-22T00:00:05.073Z,74.32
2023-04-22T00:01:07.041Z,74.10
2023-04-22T00:02:09.121Z,74.58
2023-04-22T00:03:11.102Z,74.75
2023-04-22T00:04:13.393Z,74.45
2023-04-22T00:05:17.989Z,74.00
2023-04-22T00:06:22.030Z,74.57
2023-04-22T00:07:23.858Z,74.46
2023-04-22T00:08:25.898Z,74.35
2023-04-22T00:09:27.727Z,74.34
2023-04-22T00:10:29.482Z,74.33
2023-04-22T00:11:31.284Z,73.81
2023-04-22T00:12:33.083Z,73.82
2023-04-22T00:13:35.057Z,74.85
2023-04-22T00:14:36.913Z,74.79
2023-04-22T00:15:38.991Z,74.98
2023-04-22T00:16:40.904Z,74.94
2023-04-22T00:17:43.009Z,74.93
2023-04-22T00:18:44.913Z,75.00
2023-04-22T00:19:46.733Z,75.26
2023-04-22T00:20:49.538Z,75.55
2023-04-22T00:21:51.289Z,75.70
2023-04-22T00:22:53.041Z,75.50
2023-04-22T00:23:54.873Z,75.22
2023-04-22T00:24:56.700Z,75.38
2023-04-22T00:25:58.499Z,75.98
2023-04-22T00:27:01.292Z,75.41
2023-04-22T00:28:03.124Z,75.30
2023-04-22T00:29:05.036Z,74.99
2023-04-22T00:30:07.182Z,74.67
2023-04-22T00:31:08.976Z,74.78
2023-04-22T00:32:11.089Z,74.61
2023-04-22T00:33:12.957Z,74.50
2023-04-22T00:34:14.746Z,74.36
2023-04-22T00:35:16.650Z,74.00
2023-04-22T00:36:18.371Z,74.39
2023-04-22T00:37:20.138Z,74.49
2023-04-22T00:38:22.137Z,74.42
2023-04-22T00:39:23.878Z,74.58
2023-04-22T00:40:26.313Z,74.73
2023-04-22T00:41:28.269Z,75.00
2023-04-22T00:42:30.568Z,74.86
2023-04-22T00:43:32.383Z,74.87
2023-04-22T00:44:34.225Z,75.20
2023-04-22T00:45:37.143Z,75.55
2023-04-22T00:46:39.998Z,75.37
2023-04-22T00:47:42.144Z,75.58
2023-04-22T00:48:43.953Z,76.27
2023-04-22T00:49:46.151Z,76.59
2023-04-22T00:50:47.902Z,76.22
2023-04-22T00:51:49.680Z,76.06
2023-04-22T00:52:51.565Z,76.21
2023-04-22T00:53:53.296Z,76.07
2023-04-22T00:54:55.277Z,75.72
2023-04-22T00:55:58.356Z,76.15
2023-04-22T00:57:00.265Z,76.69
2023-04-22T00:58:03.276Z,76.39
2023-04-22T00:59:05.141Z,76.67
2023-04-22T01:00:07.296Z,76.58
2023-04-22T01:01:09.720Z,77.21
2023-04-22T01:02:12.098Z,77.17
2023-04-22T01:03:14.522Z,77.32
2023-04-22T01:04:16.587Z,77.07
2023-04-22T01:05:18.565Z,77.80
2023-04-22T01:06:20.638Z,77.69
2023-04-22T01:07:22.420Z,77.82
2023-04-22T01:08:29.424Z,78.03
2023-04-22T01:09:31.239Z,78.08
2023-04-22T01:10:33.157Z,78.04
2023-04-22T01:11:36.252Z,77.83
2023-04-22T01:12:37.964Z,77.56
2023-04-22T01:13:39.768Z,77.57
2023-04-22T01:14:41.868Z,78.09
2023-04-22T01:15:43.666Z,78.40
2023-04-22T01:16:45.691Z,77.89
2023-04-22T01:17:48.296Z,77.70
2023-04-22T01:18:50.211Z,77.99
2023-04-22T01:19:53.067Z,77.94
2023-04-22T01:20:54.912Z,77.61
2023-04-22T01:21:57.341Z,77.55
2023-04-22T01:23:03.363Z,77.51
2023-04-22T01:24:05.379Z,77.57
2023-04-22T01:25:07.384Z,77.78
2023-04-22T01:26:09.222Z,77.47
2023-04-22T01:27:12.015Z,77.99
2023-04-22T01:28:14.329Z,77.75
2023-04-22T01:29:16.334Z,77.43
2023-04-22T01:30:18.156Z,77.09
2023-04-22T01:31:20.340Z,77.33
2023-04-22T01:32:22.249Z,77.43
2023-04-22T01:33:24.267Z,77.12
2023-04-22T01:34:26.725Z,77.41
2023-04-22T01:35:30.468Z,77.83
2023-04-22T01:36:32.989Z,77.92
2023-04-22T01:37:35.059Z,77.91
2023-04-22T01:38:36.942Z,77.60
2023-04-22T01:39:39.018Z,77.86
2023-04-22T01:40:41.284Z,77.71
2023-04-22T01:41:43.010Z,77.42
2023-04-22T01:42:44.900Z,77.97
2023-04-22T01:43:46.903Z,77.75
2023-04-22T01:44:48.738Z,77.72
2023-04-22T01:45:50.544Z,77.81
2023-04-22T01:46:52.332Z,77.71
2023-04-22T01:47:54.863Z,78.00
2023-04-22T01:48:56.696Z,77.96
2023-04-22T01:49:58.565Z,77.58
2023-04-22T01:51:00.444Z,78.20
2023-04-22T01:52:02.214Z,78.55
2023-04-22T01:53:04.223Z,78.04
2023-04-22T01:54:06.157Z,77.64
2023-04-22T01:55:08.556Z,77.61
2023-04-22T01:56:10.362Z,78.48
2023-04-22T01:57:14.544Z,78.56
2023-04-22T01:58:16.427Z,78.55
2023-04-22T01:59:18.219Z,78.88
2023-04-22T02:00:19.972Z,78.51
2023-04-22T02:01:21.869Z,79.24
2023-04-22T02:02:23.852Z,78.88
2023-04-22T02:03:25.897Z,78.89
2023-04-22T02:04:27.977Z,78.40
2023-04-22T02:05:29.911Z,78.25
2023-04-22T02:06:32.591Z,78.61
2023-04-22T02:07:34.457Z,78.46
2023-04-22T02:08:36.402Z,78.25
2023-04-22T02:09:38.250Z,78.80
2023-04-22T02:10:41.434Z,79.00
2023-04-22T02:11:43.181Z,78.80
2023-04-22T02:12:45.001Z,78.43
2023-04-22T02:13:46.745Z,77.75
2023-04-22T02:14:48.512Z,78.22
2023-04-22T02:15:52.509Z,78.39
2023-04-22T02:16:54.628Z,77.99
2023-04-22T02:17:56.397Z,78.85
2023-04-22T02:18:58.334Z,79.23
2023-04-22T02:20:00.221Z,78.80
2023-04-22T02:21:02.614Z,78.93
2023-04-22T02:22:04.610Z,79.09
2023-04-22T02:23:06.771Z,79.05
2023-04-22T02:24:08.656Z,79.02
2023-04-22T02:25:12.604Z,79.75
2023-04-22T02:26:14.383Z,79.71
2023-04-22T02:27:16.156Z,79.89
2023-04-22T02:28:18.332Z,79.59
2023-04-22T02:29:20.174Z,78.98
2023-04-22T02:30:23.506Z,78.53
2023-04-22T02:31:25.537Z,78.42
2023-04-22T02:32:27.444Z,79.01
2023-04-22T02:33:29.293Z,79.48
2023-04-22T02:34:31.187Z,79.55
2023-04-22T02:35:33.515Z,79.45
2023-04-22T02:36:35.299Z,79.03
2023-04-22T02:37:37.113Z,79.79
2023-04-22T02:38:38.831Z,79.32
2023-04-22T02:39:40.951Z,79.76
2023-04-22T02:40:43.094Z,79.99
2023-04-22T02:41:44.857Z,80.27
2023-04-22T02:42:48.729Z,80.30
2023-04-22T02:43:50.530Z,80.16
2023-04-22T02:44:52.302Z,80.49
2023-04-22T02:45:54.557Z,80.56
2023-04-22T02:46:56.556Z,80.09
2023-04-22T02:47:58.629Z,79.64
2023-04-22T02:49:00.462Z,79.66
2023-04-22T02:50:02.220Z,79.94
2023-04-22T02:51:04.182Z,80.49
2023-04-22T02:52:06.015Z,80.29
2023-04-22T02:53:08.534Z,80.24
2023-04-22T02:54:10.313Z,80.45
2023-04-22T02:55:12.182Z,80.31
2023-04-22T02:56:14.005Z,80.33
2023-04-22T02:57:15.824Z,80.15
2023-04-22T02:58:17.759Z,80.17
2023-04-22T02:59:19.549Z,79.83
2023-04-22T03:00:21.390Z,79.64
2023-04-22T03:01:23.439Z,80.59
2023-04-22T03:02:25.535Z,80.80
2023-04-22T03:03:27.832Z,80.52
2023-04-22T03:04:29.909Z,80.59
2023-04-22T03:05:31.747Z,80.67
2023-04-22T03:06:33.584Z,80.32
2023-04-22T03:07:35.321Z,80.76
2023-04-22T03:08:37.117Z,80.67
2023-04-22T03:09:39.007Z,80.29
2023-04-22T03:10:41.252Z,80.56
2023-04-22T03:11:43.172Z,80.55
2023-04-22T03:12:44.980Z,80.11
2023-04-22T03:13:46.836Z,80.33
2023-04-22T03:14:48.783Z,80.63
2023-04-22T03:15:50.648Z,80.09
2023-04-22T03:16:53.676Z,80.38
2023-04-22T03:17:55.611Z,80.59
2023-04-22T03:18:57.369Z,80.74
2023-04-22T03:19:59.250Z,79.88
2023-04-22T03:21:01.307Z,80.58
2023-04-22T03:22:04.549Z,80.61
2023-04-22T03:23:07.882Z,80.72
2023-04-22T03:24:09.640Z,80.43
2023-04-22T03:25:11.651Z,81.23
2023-04-22T03:26:13.999Z,80.62
2023-04-22T03:27:15.948Z,80.50
2023-04-22T03:28:17.656Z,80.96
2023-04-22T03:29:19.405Z,80.28
2023-04-22T03:30:21.378Z,80.88
2023-04-22T03:31:23.258Z,80.38
2023-04-22T03:32:25.218Z,80.58
2023-04-22T03:33:27.692Z,80.88
2023-04-22T03:34:29.485Z,81.21
2023-04-22T03:35:31.361Z,81.58
2023-04-22T03:36:33.228Z,81.24
2023-04-22T03:37:36.603Z,81.59
2023-04-22T03:38:38.422Z,82.11
2023-04-22T03:39:41.862Z,82.65
2023-04-22T03:40:43.987Z,82.30
2023-04-22T03:41:45.791Z,81.80
2023-04-22T03:42:47.575Z,82.40
2023-04-22T03:43:50.015Z,81.49
2023-04-22T03:44:51.893Z,82.89
2023-04-22T03:45:53.821Z,82.81
2023-04-22T03:46:55.697Z,82.60
2023-04-22T03:47:58.018Z,81.74
2023-04-22T03:48:59.877Z,81.93
2023-04-22T03:50:01.649Z,82.53
2023-04-22T03:51:03.751Z,81.98
2023-04-22T03:52:05.637Z,82.42
2023-04-22T03:53:07.848Z,81.84
2023-04-22T03:54:09.658Z,81.91
2023-04-22T03:55:11.514Z,82.13
2023-04-22T03:56:13.327Z,82.19
2023-04-22T03:57:15.132Z,82.80
2023-04-22T03:58:16.950Z,83.00
2023-04-22T03:59:18.963Z,82.79
2023-04-22T04:00:20.768Z,83.51
2023-04-22T04:01:23.827Z,82.34
2023-04-22T04:02:25.753Z,82.24
2023-04-22T04:03:30.305Z,82.89
2023-04-22T04:04:33.885Z,82.44
2023-04-22T04:05:36.076Z,83.28
2023-04-22T04:06:37.920Z,82.95
2023-04-22T04:07:39.833Z,82.68
2023-04-22T04:08:41.621Z,83.06
2023-04-22T04:09:44.685Z,83.05
2023-04-22T04:10:46.519Z,82.65
2023-04-22T04:11:48.269Z,82.92
2023-04-22T04:12:49.998Z,82.92
2023-04-22T04:13:51.839Z,83.45
2023-04-22T04:14:54.646Z,83.09
2023-04-22T04:15:56.506Z,83.29
2023-04-22T04:16:58.847Z,84.04
2023-04-22T04:18:01.974Z,83.23
2023-04-22T04:19:05.654Z,83.30
2023-04-22T04:20:07.835Z,84.36
2023-04-22T04:21:11.046Z,83.30
2023-04-22T04:22:12.920Z,84.11
2023-04-22T04:23:14.738Z,83.44
2023-04-22T04:24:16.677Z,83.61
2023-04-22T04:25:18.720Z,83.56
2023-04-22T04:26:20.718Z,82.55
2023-04-22T04:27:23.862Z,83.60
2023-04-22T04:28:25.698Z,83.19
2023-04-22T04:29:27.533Z,82.74
2023-04-22T04:30:31.061Z,82.92
2023-04-22T04:31:34.374Z,83.23
2023-04-22T04:32:37.003Z,83.55
2023-04-22T04:33:39.421Z,83.10
2023-04-22T04:34:42.597Z,83.43
2023-04-22T04:35:45.070Z,82.95
2023-04-22T04:36:47.017Z,84.05
2023-04-22T04:37:48.745Z,83.80
2023-04-22T04:38:52.053Z,84.16
2023-04-22T04:39:55.729Z,82.93
2023-04-22T04:40:58.263Z,83.73
2023-04-22T04:42:00.766Z,83.18
2023-04-22T04:43:02.779Z,83.17
2023-04-22T04:44:04.868Z,83.31
2023-04-22T04:45:07.887Z,82.80
2023-04-22T04:46:09.767Z,83.55
2023-04-22T04:47:13.597Z,83.18
2023-04-22T04:48:15.971Z,82.53
2023-04-22T04:49:18.102Z,82.48
2023-04-22T04:50:23.026Z,83.25
2023-04-22T04:51:24.816Z,83.68
2023-04-22T04:52:27.288Z,83.83
2023-04-22T04:53:29.107Z,83.90
2023-04-22T04:54:30.893Z,84.26
2023-04-22T04:55:32.724Z,83.84
2023-04-22T04:56:34.581Z,84.54
2023-04-22T04:57:38.398Z,84.12
2023-04-22T04:58:40.392Z,83.51
2023-04-22T04:59:42.359Z,84.06
2023-04-22T05:00:44.419Z,84.20
2023-04-22T05:01:46.377Z,83.65
2023-04-22T05:02:48.324Z,82.92
2023-04-22T05:03:50.403Z,83.30
2023-04-22T05:04:52.488Z,83.94
2023-04-22T05:05:54.538Z,83.86
2023-04-22T05:06:56.329Z,83.47
2023-04-22T05:07:58.132Z,83.46
2023-04-22T05:09:00.763Z,83.46
2023-04-22T05:10:02.796Z,82.95
2023-04-22T05:11:04.640Z,82.98
2023-04-22T05:12:06.438Z,83.16
2023-04-22T05:13:08.250Z,83.86
2023-04-22T05:14:10.715Z,83.66
2023-04-22T05:15:12.535Z,83.31
2023-04-22T05:16:14.374Z,83.82
2023-04-22T05:17:16.199Z,83.73
2023-04-22T05:18:18.155Z,83.59
2023-04-22T05:19:19.943Z,83.55
2023-04-22T05:20:21.792Z,82.82
2023-04-22T05:21:23.689Z,83.00
2023-04-22T05:22:25.444Z,82.92
2023-04-22T05:23:27.260Z,82.56
2023-04-22T05:24:29.146Z,83.08
2023-04-22T05:25:30.983Z,82.40
2023-04-22T05:26:32.818Z,82.21
2023-04-22T05:27:34.835Z,82.88
2023-04-22T05:28:36.670Z,82.69
2023-04-22T05:29:38.829Z,82.75
2023-04-22T05:30:40.735Z,83.21
2023-04-22T05:31:42.659Z,83.25
2023-04-22T05:32:44.643Z,82.92
2023-04-22T05:33:46.381Z,82.71
2023-04-22T05:34:48.132Z,82.74
2023-04-22T05:35:51.399Z,82.36
2023-04-22T05:36:53.157Z,82.39
2023-04-22T05:37:54.904Z,81.83
2023-04-22T05:38:56.669Z,81.85
2023-04-22T05:39:58.412Z,82.18
2023-04-22T05:41:00.206Z,81.76
2023-04-22T05:42:02.242Z,82.21
2023-04-22T05:43:04.061Z,81.90
2023-04-22T05:44:05.806Z,82.19
2023-04-22T05:45:08.050Z,81.78
2023-04-22T05:46:09.922Z,81.54
2023-04-22T05:47:11.656Z,81.68
2023-04-22T05:48:13.449Z,81.41
2023-04-22T05:49:15.334Z,81.51
2023-04-22T05:50:17.139Z,81.50
2023-04-22T05:51:19.018Z,81.31
2023-04-22T05:52:20.861Z,81.46
2023-04-22T05:53:22.700Z,81.68
2023-04-22T05:54:24.562Z,81.10
2023-04-22T05:55:27.156Z,80.78
2023-04-22T05:56:29.014Z,81.36
2023-04-22T05:57:31.694Z,81.21
2023-04-22T05:58:33.535Z,80.40
2023-04-22T05:59:35.369Z,80.98
2023-04-22T06:00:37.154Z,80.40
2023-04-22T06:01:39.088Z,80.46
2023-04-22T06:02:41.088Z,80.52
2023-04-22T06:03:43.610Z,80.27
2023-04-22T06:04:46.971Z,80.00
2023-04-22T06:05:49.214Z,79.95
2023-04-22T06:06:54.113Z,79.78
2023-04-22T06:07:55.913Z,80.17
2023-04-22T06:08:57.756Z,79.32
2023-04-22T06:10:04.722Z,78.96
2023-04-22T06:11:07.475Z,78.41
2023-04-22T06:12:09.279Z,78.84
2023-04-22T06:13:11.052Z,78.53
2023-04-22T06:14:13.402Z,78.71
2023-04-22T06:15:15.188Z,78.37
2023-04-22T06:16:17.853Z,78.20
2023-04-22T06:17:19.645Z,78.34
2023-04-22T06:18:21.449Z,77.93
2023-04-22T06:19:23.216Z,77.70
2023-04-22T06:20:25.017Z,77.36
2023-04-22T06:21:27.029Z,77.18
2023-04-22T06:22:28.838Z,76.93
2023-04-22T06:23:30.728Z,76.94
2023-04-22T06:24:32.531Z,76.08
2023-04-22T06:25:34.378Z,76.44
2023-04-22T06:26:37.021Z,75.79
2023-04-22T06:27:38.966Z,75.94
2023-04-22T06:28:41.005Z,76.12
2023-04-22T06:29:42.824Z,75.48
2023-04-22T06:30:44.618Z,75.06
2023-04-22T06:31:46.405Z,74.73
2023-04-22T06:32:48.241Z,74.71
2023-04-22T06:33:50.087Z,74.12
2023-04-22T06:34:51.911Z,74.39
2023-04-22T06:35:53.831Z,74.08
2023-04-22T06:36:55.662Z,73.58
2023-04-22T06:37:57.435Z,73.22
2023-04-22T06:39:00.865Z,73.06
2023-04-22T06:40:02.681Z,73.32
2023-04-22T06:41:04.475Z,72.99
2023-04-22T06:42:06.264Z,73.24
2023-04-22T06:43:08.036Z,72.81
2023-04-22T06:44:10.845Z,72.35
2023-04-22T06:45:13.253Z,72.74
2023-04-22T06:46:15.100Z,72.14
2023-04-22T06:47:16.893Z,72.57
2023-04-22T06:48:18.623Z,72.45
2023-04-22T06:49:21.870Z,72.82
2023-04-22T06:50:23.661Z,72.64
2023-04-22T06:51:25.511Z,72.74
2023-04-22T06:52:27.256Z,71.56
2023-04-22T06:53:29.027Z,72.00
2023-04-22T06:54:32.187Z,71.34
2023-04-22T06:55:34.010Z,71.47
2023-04-22T06:56:36.342Z,71.04
2023-04-22T06:57:38.170Z,70.20
2023-04-22T06:58:39.951Z,70.45
2023-04-22T06:59:44.489Z,70.62
2023-04-22T07:00:48.630Z,71.06
2023-04-22T07:01:50.400Z,70.48
2023-04-22T07:02:52.282Z,70.13
2023-04-22T07:03:54.198Z,69.97
2023-04-22T07:04:56.232Z,70.48
2023-04-22T07:05:58.020Z,69.75
2023-04-22T07:06:59.905Z,68.88
2023-04-22T07:08:01.678Z,68.22
2023-04-22T07:09:03.521Z,67.77
2023-04-22T07:10:06.281Z,66.71
2023-04-22T07:11:08.093Z,65.02
2023-04-22T07:12:09.835Z,65.32
2023-04-22T07:13:11.677Z,65.42
2023-04-22T07:14:13.461Z,65.41
2023-04-22T07:15:15.240Z,64.58
2023-04-22T07:16:17.134Z,64.52
2023-04-22T07:17:22.372Z,65.27
2023-04-22T07:18:24.139Z,64.53
2023-04-22T07:19:25.986Z,64.16
2023-04-22T07:20:27.853Z,62.95
2023-04-22T07:21:32.818Z,62.16
2023-04-22T07:22:34.589Z,63.21
2023-04-22T07:23:36.595Z,63.32
2023-04-22T07:24:39.217Z,63.81
2023-04-22T07:25:41.168Z,63.15
2023-04-22T07:26:43.657Z,63.46
2023-04-22T07:27:45.509Z,62.79
2023-04-22T07:28:47.448Z,61.20
2023-04-22T07:29:49.260Z,62.34
2023-04-22T07:30:51.226Z,61.78
2023-04-22T07:31:53.082Z,62.29
2023-04-22T07:32:55.730Z,61.72
2023-04-22T07:33:57.499Z,61.47
2023-04-22T07:34:59.321Z,60.10
2023-04-22T07:36:01.253Z,60.68
2023-04-22T07:37:03.110Z,61.00
2023-04-22T07:38:05.419Z,60.28
2023-04-22T07:39:08.225Z,59.87
2023-04-22T07:40:12.166Z,60.32
2023-04-22T07:41:14.220Z,59.51
2023-04-22T07:42:16.423Z,57.31
2023-04-22T07:43:18.285Z,58.16
2023-04-22T07:44:21.882Z,56.57
2023-04-22T07:45:23.657Z,56.17
2023-04-22T07:46:25.562Z,57.07
2023-04-22T07:47:27.676Z,55.99
2023-04-22T07:48:29.551Z,57.12
2023-04-22T07:49:31.371Z,55.17
2023-04-22T07:50:33.254Z,55.10
2023-04-22T07:51:35.059Z,54.92
2023-04-22T07:52:36.885Z,54.81
2023-04-22T07:53:38.620Z,55.06
2023-04-22T07:54:40.572Z,54.25
2023-04-22T07:55:42.439Z,54.63
2023-04-22T07:56:44.406Z,54.84
2023-04-22T07:57:46.236Z,55.22
2023-04-22T07:58:48.004Z,54.82
2023-04-22T07:59:50.026Z,54.80
2023-04-22T08:00:52.035Z,54.89
2023-04-22T08:01:54.032Z,54.55
2023-04-22T08:02:56.182Z,54.52
2023-04-22T08:03:58.359Z,53.31
2023-04-22T08:05:00.418Z,53.91
2023-04-22T08:06:02.155Z,53.38
2023-04-22T08:07:17.178Z,53.01
2023-04-22T08:08:26.904Z,52.98
2023-04-22T08:09:28.609Z,52.96
2023-04-22T08:10:30.397Z,53.22
2023-04-22T08:11:32.247Z,52.71
2023-04-22T08:12:34.055Z,53.00
2023-04-22T08:13:35.969Z,53.01
2023-04-22T08:14:37.747Z,52.31
2023-04-22T08:15:40.287Z,51.93
2023-04-22T08:16:43.083Z,52.18
2023-04-22T08:17:44.959Z,50.83
2023-04-22T08:18:46.831Z,51.39
2023-04-22T08:19:49.266Z,51.24
2023-04-22T08:20:52.419Z,51.28
2023-04-22T08:21:54.189Z,50.49
2023-04-22T08:23:00.572Z,50.69
2023-04-22T08:24:02.382Z,50.57
2023-04-22T08:25:04.318Z,50.02
2023-04-22T08:26:07.036Z,50.38
2023-04-22T08:27:08.855Z,49.41
2023-04-22T08:28:11.421Z,49.22
2023-04-22T08:29:13.459Z,49.76
2023-04-22T08:30:15.371Z,50.63
2023-04-22T08:31:18.184Z,50.72
2023-04-22T08:32:22.636Z,50.34
2023-04-22T08:33:26.650Z,48.88
2023-04-22T08:34:29.345Z,49.49
2023-04-22T08:35:31.720Z,47.80
2023-04-22T08:36:33.638Z,49.02
2023-04-22T08:37:35.487Z,48.24
2023-04-22T08:38:37.614Z,47.52
2023-04-22T08:39:39.639Z,47.81
2023-04-22T08:40:42.848Z,48.06
2023-04-22T08:41:46.105Z,48.22
2023-04-22T08:42:48.428Z,48.68
2023-04-22T08:43:50.867Z,48.08
2023-04-22T08:44:53.334Z,48.49
2023-04-22T08:45:56.831Z,48.26
2023-04-22T08:47:00.828Z,47.76
2023-04-22T08:48:04.778Z,47.83
2023-04-22T08:49:06.625Z,46.45
2023-04-22T08:50:09.956Z,46.82
2023-04-22T08:51:11.770Z,47.78
2023-04-22T08:52:15.730Z,46.62
2023-04-22T08:53:17.527Z,47.13
2023-04-22T08:54:19.291Z,46.65
2023-04-22T08:55:21.573Z,46.84
2023-04-22T08:56:25.128Z,46.61
2023-04-22T08:57:27.366Z,47.07
2023-04-22T08:58:31.156Z,45.50
2023-04-22T08:59:34.195Z,45.77
2023-04-22T09:00:36.515Z,46.32
2023-04-22T09:01:39.441Z,46.71
2023-04-22T09:02:45.231Z,46.22
2023-04-22T09:03:49.132Z,46.19
2023-04-22T09:04:52.018Z,45.30
2023-04-22T09:05:55.224Z,46.49
2023-04-22T09:06:57.276Z,45.43
2023-04-22T09:07:59.147Z,44.66
2023-04-22T09:09:01.632Z,45.25
2023-04-22T09:10:03.464Z,45.48
2023-04-22T09:11:05.421Z,45.21
2023-04-22T09:12:07.141Z,45.15
2023-04-22T09:13:10.540Z,45.58
2023-04-22T09:14:12.511Z,46.10
2023-04-22T09:15:14.270Z,45.53
2023-04-22T09:16:16.136Z,45.65
2023-04-22T09:17:18.997Z,45.95
2023-04-22T09:18:21.138Z,45.87
2023-04-22T09:19:24.434Z,45.23
2023-04-22T09:20:27.161Z,46.91
2023-04-22T09:21:29.262Z,45.54
2023-04-22T09:22:38.371Z,43.93
2023-04-22T09:23:54.126Z,43.62
2023-04-22T09:24:59.618Z,44.46
2023-04-22T09:26:01.579Z,44.63
2023-04-22T09:27:03.937Z,44.02
2023-04-22T09:28:05.748Z,43.75
2023-04-22T09:29:09.824Z,44.46
2023-04-22T09:30:11.765Z,43.19
2023-04-22T09:31:16.726Z,44.05
2023-04-22T09:32:18.873Z,42.27
2023-04-22T09:33:20.883Z,41.76
2023-04-22T09:34:22.729Z,41.47
2023-04-22T09:35:28.207Z,41.36
2023-04-22T09:36:30.572Z,41.86
2023-04-22T09:37:48.557Z,41.16
2023-04-22T09:38:55.654Z,41.59
2023-04-22T09:39:57.471Z,41.73
2023-04-22T09:40:59.269Z,41.80
2023-04-22T09:42:01.372Z,42.06
2023-04-22T09:43:06.158Z,41.08
2023-04-22T09:44:14.085Z,40.77
2023-04-22T09:45:25.308Z,42.62
2023-04-22T09:46:28.292Z,42.34
2023-04-22T09:47:35.557Z,44.07
2023-04-22T09:48:42.649Z,41.99
2023-04-22T09:49:48.113Z,40.59
2023-04-22T09:50:51.304Z,39.47
2023-04-22T09:51:56.924Z,39.91
2023-04-22T09:53:06.778Z,39.72
2023-04-22T09:54:11.761Z,41.43
2023-04-22T09:55:13.833Z,39.33
2023-04-22T09:56:15.678Z,38.67
2023-04-22T09:57:17.693Z,40.37
2023-04-22T09:58:21.152Z,39.32
2023-04-22T09:59:28.302Z,38.65
2023-04-22T10:00:30.920Z,39.22
2023-04-22T10:01:37.378Z,41.04
2023-04-22T10:02:39.304Z,39.26
2023-04-22T10:03:41.183Z,38.84
2023-04-22T10:04:43.109Z,37.44
2023-04-22T10:05:46.326Z,36.06
2023-04-22T10:06:48.986Z,36.93
2023-04-22T10:07:51.572Z,37.06
2023-04-22T10:08:53.524Z,39.02
2023-04-22T10:09:55.327Z,37.79
2023-04-22T10:10:57.209Z,37.58
2023-04-22T10:11:59.423Z,40.63
2023-04-22T10:13:01.703Z,37.42
2023-04-22T10:14:03.632Z,38.12
2023-04-22T10:15:06.705Z,36.66
2023-04-22T10:16:08.622Z,37.09
2023-04-22T10:17:11.046Z,41.01
2023-04-22T10:18:14.120Z,40.14
2023-04-22T10:19:18.259Z,39.30
2023-04-22T10:20:21.513Z,37.55
2023-04-22T10:21:26.365Z,36.73
2023-04-22T10:22:28.324Z,36.05
2023-04-22T10:23:32.663Z,36.83
2023-04-22T10:24:37.923Z,36.91
2023-04-22T10:25:40.409Z,37.36
2023-04-22T10:26:57.244Z,38.21
2023-04-22T10:28:03.535Z,36.08
2023-04-22T10:29:11.203Z,35.62
2023-04-22T10:30:27.058Z,37.40
2023-04-22T10:31:29.063Z,35.84
2023-04-22T10:32:32.121Z,36.07
2023-04-22T10:33:36.231Z,36.39
2023-04-22T10:34:39.334Z,35.72
2023-04-22T10:35:41.361Z,37.96
2023-04-22T10:37:01.808Z,38.09
2023-04-22T10:38:07.834Z,36.75
2023-04-22T10:39:09.571Z,36.49
2023-04-22T10:40:16.339Z,36.10
2023-04-22T10:41:22.657Z,35.63
2023-04-22T10:42:29.051Z,36.27
2023-04-22T10:43:55.734Z,38.95
2023-04-22T10:45:01.985Z,35.46
2023-04-22T10:46:03.864Z,38.34
2023-04-22T10:47:05.794Z,37.73
2023-04-22T10:48:07.640Z,36.73
2023-04-22T10:49:10.732Z,37.54
2023-04-22T10:50:12.388Z,36.57
2023-04-22T10:51:33.438Z,35.07
2023-04-22T10:52:35.276Z,35.18
2023-04-22T10:53:37.479Z,36.54
2023-04-22T10:54:39.320Z,35.65
2023-04-22T10:55:53.679Z,35.66
2023-04-22T10:57:09.016Z,34.46
2023-04-22T10:58:19.462Z,35.46
2023-04-22T10:59:21.319Z,34.31
2023-04-22T11:00:24.920Z,35.20
2023-04-22T11:01:30.057Z,39.24
2023-04-22T11:02:31.902Z,36.03
2023-04-22T11:03:33.847Z,33.65
2023-04-22T11:04:36.068Z,37.01
2023-04-22T11:05:39.256Z,34.72
2023-04-22T11:06:41.146Z,34.37
2023-04-22T11:07:43.015Z,30.71
2023-04-22T11:08:45.991Z,30.97
2023-04-22T11:09:50.818Z,31.70
2023-04-22T11:10:53.743Z,34.03
2023-04-22T11:12:15.480Z,36.04
2023-04-22T11:13:19.488Z,35.38
2023-04-22T11:14:21.971Z,34.63
2023-04-22T11:15:24.295Z,34.46
2023-04-22T11:16:26.165Z,33.25
2023-04-22T11:17:28.151Z,33.61
2023-04-22T11:18:30.165Z,31.75
2023-04-22T11:19:32.185Z,32.21
2023-04-22T11:20:34.158Z,31.44
2023-04-22T11:21:35.971Z,32.96
2023-04-22T11:22:38.446Z,32.22
2023-04-22T11:23:49.631Z,33.20
2023-04-22T11:24:58.218Z,32.80
2023-04-22T11:26:01.489Z,31.14
2023-04-22T11:27:03.314Z,33.00
2023-04-22T11:28:05.292Z,32.11
2023-04-22T11:29:07.102Z,32.63
2023-04-22T11:30:12.282Z,31.72
2023-04-22T11:31:15.361Z,31.06
2023-04-22T11:32:17.203Z,35.09
2023-04-22T11:33:19.868Z,32.10
2023-04-22T11:34:21.736Z,29.53
2023-04-22T11:35:24.998Z,31.51
2023-04-22T11:36:27.839Z,30.14
2023-04-22T11:37:29.731Z,34.13
2023-04-22T11:38:31.744Z,32.07
2023-04-22T11:39:43.576Z,30.50
2023-04-22T11:40:52.203Z,31.64
2023-04-22T11:41:53.994Z,30.77
2023-04-22T11:42:57.033Z,29.23
2023-04-22T11:44:00.548Z,29.57
2023-04-22T11:45:02.389Z,27.82
2023-04-22T11:46:05.525Z,28.64
2023-04-22T11:47:07.388Z,27.87
2023-04-22T11:48:10.129Z,28.95
2023-04-22T11:49:14.337Z,29.47
2023-04-22T11:50:16.729Z,28.90
2023-04-22T11:51:18.510Z,29.82
2023-04-22T11:52:21.265Z,28.58
2023-04-22T11:53:25.701Z,26.58
2023-04-22T11:54:33.496Z,28.84
2023-04-22T11:55:38.410Z,27.53
2023-04-22T11:56:40.271Z,30.82
2023-04-22T11:57:42.262Z,28.15
2023-04-22T11:58:44.048Z,30.22
2023-04-22T11:59:57.027Z,28.09
2023-04-22T12:00:59.633Z,28.16
2023-04-22T12:02:05.042Z,30.07
2023-04-22T12:03:15.256Z,27.69
2023-04-22T12:04:17.635Z,27.21
2023-04-22T12:05:19.553Z,27.04
2023-04-22T12:06:21.515Z,28.96
2023-04-22T12:07:23.682Z,30.12
2023-04-22T12:08:26.981Z,31.29
2023-04-22T12:09:28.792Z,28.45
2023-04-22T12:10:32.373Z,27.95
2023-04-22T12:11:34.204Z,28.00
2023-04-22T12:12:39.499Z,29.79
2023-04-22T12:13:42.949Z,29.16
2023-04-22T12:14:46.289Z,28.38
2023-04-22T12:15:48.610Z,29.12
2023-04-22T12:16:50.910Z,28.65
2023-04-22T12:17:53.309Z,27.48
2023-04-22T12:18:55.754Z,28.28
2023-04-22T12:19:58.857Z,29.30
2023-04-22T12:21:01.807Z,30.76
2023-04-22T12:22:03.767Z,27.10
2023-04-22T12:23:05.745Z,28.52
2023-04-22T12:24:13.240Z,25.70
2023-04-22T12:25:18.223Z,28.09
2023-04-22T12:26:22.123Z,27.24
2023-04-22T12:27:25.662Z,28.18
2023-04-22T12:28:27.421Z,27.97
2023-04-22T12:29:33.389Z,26.89
2023-04-22T12:30:35.357Z,27.84
2023-04-22T12:31:38.947Z,30.24
2023-04-22T12:32:41.057Z,30.46
2023-04-22T12:33:43.463Z,31.22
2023-04-22T12:34:45.510Z,29.84
2023-04-22T12:35:49.103Z,31.19
2023-04-22T12:36:50.985Z,28.63
2023-04-22T12:37:52.893Z,26.59
2023-04-22T12:38:54.736Z,27.61
2023-04-22T12:39:56.592Z,28.61
2023-04-22T12:40:58.923Z,31.56
2023-04-22T12:42:00.689Z,30.44
2023-04-22T12:43:06.236Z,32.24
2023-04-22T12:44:08.913Z,30.03
2023-04-22T12:45:11.124Z,32.44
2023-04-22T12:46:13.023Z,31.00
2023-04-22T12:47:15.522Z,30.52
2023-04-22T12:48:17.567Z,29.05
2023-04-22T12:49:19.373Z,29.05
2023-04-22T12:50:21.389Z,29.27
2023-04-22T12:51:23.224Z,30.92
2023-04-22T12:52:25.081Z,30.56
2023-04-22T12:53:27.796Z,29.80
2023-04-22T12:54:29.637Z,31.16
2023-04-22T12:55:31.661Z,29.83
2023-04-22T12:56:33.514Z,30.89
2023-04-22T12:57:35.422Z,29.77
2023-04-22T12:58:37.188Z,31.08
2023-04-22T12:59:39.253Z,29.23
2023-04-22T13:00:41.349Z,29.17
2023-04-22T13:01:43.194Z,32.04
2023-04-22T13:02:46.057Z,32.90
2023-04-22T13:03:48.272Z,30.84
2023-04-22T13:04:50.204Z,30.43
2023-04-22T13:05:52.576Z,31.34
2023-04-22T13:06:56.602Z,30.65
2023-04-22T13:08:06.582Z,29.73
2023-04-22T13:09:09.229Z,30.79
2023-04-22T13:10:12.602Z,31.62
2023-04-22T13:11:14.420Z,29.21
2023-04-22T13:12:16.475Z,29.78
2023-04-22T13:13:19.529Z,30.65
2023-04-22T13:14:21.536Z,28.73
2023-04-22T13:15:23.500Z,30.27
2023-04-22T13:16:25.312Z,30.35
2023-04-22T13:17:27.249Z,29.85
2023-04-22T13:18:29.140Z,30.76
2023-04-22T13:19:32.154Z,30.77
2023-04-22T13:20:34.898Z,28.80
2023-04-22T13:21:36.685Z,30.91
2023-04-22T13:22:38.941Z,31.13
2023-04-22T13:23:40.773Z,29.22
2023-04-22T13:24:42.577Z,31.08
2023-04-22T13:25:44.464Z,29.93
2023-04-22T13:26:46.563Z,30.45
2023-04-22T13:27:48.274Z,30.72